sensor_id;sensor_type;location;lat;lon;timestamp;pressure;altitude;pressure_sealevel;temperature;humidity
59272;BME280;45043;51.068;7.026;2023-05-14T00:15:04;100643.69;;;8.75;53.46
59272;BME280;45043;51.068;7.026;2023-05-14T00:18:05;100650.59;;;9.14;53.18
59272;BME280;45043;51.068;7.026;2023-05-14T00:21:06;100650.69;;;9.50;52.82
59272;BME280;45043;51.068;7.026;2023-05-14T00:24:06;100640.38;;;9.77;52.38
59272;BME280;45043;51.068;7.026;2023-05-14T00:27:07;100642.22;;;9.98;52.30
59272;BME280;45043;51.068;7.026;2023-05-14T00:30:08;100641.63;;;10.17;51.98
59272;BME280;45043;51.068;7.026;2023-05-14T00:33:08;100644.22;;;10.32;51.43
59272;BME280;45043;51.068;7.026;2023-05-14T00:36:09;100643.88;;;10.42;51.33
59272;BME280;45043;51.068;7.026;2023-05-14T00:39:09;100638.25;;;10.52;51.09
59272;BME280;45043;51.068;7.026;2023-05-14T00:42:10;100635.66;;;10.58;50.90
59272;BME280;45043;51.068;7.026;2023-05-14T00:45:10;100633.91;;;10.65;50.64
59272;BME280;45043;51.068;7.026;2023-05-14T00:48:12;100635.97;;;10.70;50.54
59272;BME280;45043;51.068;7.026;2023-05-14T00:51:13;100636.78;;;10.70;50.42
59272;BME280;45043;51.068;7.026;2023-05-14T00:54:15;100630.06;;;10.75;50.32
59272;BME280;45043;51.068;7.026;2023-05-14T00:57:17;100626.81;;;10.72;50.35
59272;BME280;45043;51.068;7.026;2023-05-14T01:00:18;100627.41;;;10.75;49.94
59272;BME280;45043;51.068;7.026;2023-05-14T01:03:18;100615.75;;;10.76;49.86
59272;BME280;45043;51.068;7.026;2023-05-14T01:06:38;100618.41;;;10.76;49.80
59272;BME280;45043;51.068;7.026;2023-05-14T01:13:34;100610.00;;;10.72;49.55
59272;BME280;45043;51.068;7.026;2023-05-14T01:16:32;100609.19;;;10.71;49.67
59272;BME280;45043;51.068;7.026;2023-05-14T01:19:38;100602.03;;;10.72;49.62
59272;BME280;45043;51.068;7.026;2023-05-14T01:22:39;100600.63;;;10.69;49.69
59272;BME280;45043;51.068;7.026;2023-05-14T01:25:39;100598.78;;;10.70;49.50
59272;BME280;45043;51.068;7.026;2023-05-14T01:28:41;100601.63;;;10.68;49.63
59272;BME280;45043;51.068;7.026;2023-05-14T01:31:44;100600.31;;;10.64;49.75
59272;BME280;45043;51.068;7.026;2023-05-14T01:34:46;100604.75;;;10.57;49.93
59272;BME280;45043;51.068;7.026;2023-05-14T01:37:48;100602.25;;;10.49;50.31
59272;BME280;45043;51.068;7.026;2023-05-14T01:40:49;100601.59;;;10.40;50.79
59272;BME280;45043;51.068;7.026;2023-05-14T01:43:52;100593.56;;;10.34;50.59
59272;BME280;45043;51.068;7.026;2023-05-14T01:46:52;100592.06;;;10.24;51.07
59272;BME280;45043;51.068;7.026;2023-05-14T01:49:53;100595.28;;;10.20;50.78
59272;BME280;45043;51.068;7.026;2023-05-14T01:52:54;100592.59;;;10.13;51.00
59272;BME280;45043;51.068;7.026;2023-05-14T01:55:55;100593.97;;;10.09;51.01
59272;BME280;45043;51.068;7.026;2023-05-14T01:58:56;100590.81;;;9.99;51.31
59272;BME280;45043;51.068;7.026;2023-05-14T02:01:59;100588.28;;;9.91;51.67
59272;BME280;45043;51.068;7.026;2023-05-14T02:04:59;100582.53;;;9.87;51.87
59272;BME280;45043;51.068;7.026;2023-05-14T02:08:00;100587.41;;;9.84;51.77
59272;BME280;45043;51.068;7.026;2023-05-14T02:11:00;100580.84;;;9.80;51.52
59272;BME280;45043;51.068;7.026;2023-05-14T02:14:01;100579.94;;;9.72;52.12
59272;BME280;45043;51.068;7.026;2023-05-14T02:17:01;100582.31;;;9.67;52.07
59272;BME280;45043;51.068;7.026;2023-05-14T02:20:03;100575.06;;;9.55;52.31
59272;BME280;45043;51.068;7.026;2023-05-14T02:23:03;100580.25;;;9.48;52.64
59272;BME280;45043;51.068;7.026;2023-05-14T02:26:04;100580.81;;;9.43;52.63
59272;BME280;45043;51.068;7.026;2023-05-14T02:29:04;100583.63;;;9.42;52.77
59272;BME280;45043;51.068;7.026;2023-05-14T02:32:05;100581.09;;;9.34;52.75
59272;BME280;45043;51.068;7.026;2023-05-14T02:35:05;100575.09;;;9.10;53.06
59272;BME280;45043;51.068;7.026;2023-05-14T02:38:06;100570.38;;;8.91;53.49
59272;BME280;45043;51.068;7.026;2023-05-14T02:41:06;100571.44;;;8.82;54.67
59272;BME280;45043;51.068;7.026;2023-05-14T02:44:07;100575.47;;;8.77;54.37
59272;BME280;45043;51.068;7.026;2023-05-14T02:47:07;100569.25;;;8.70;54.77
59272;BME280;45043;51.068;7.026;2023-05-14T02:50:08;100571.16;;;8.62;55.20
59272;BME280;45043;51.068;7.026;2023-05-14T02:53:08;100568.06;;;8.58;55.27
59272;BME280;45043;51.068;7.026;2023-05-14T02:56:09;100572.69;;;8.56;56.19
59272;BME280;45043;51.068;7.026;2023-05-14T02:59:09;100579.00;;;8.55;56.62
59272;BME280;45043;51.068;7.026;2023-05-14T03:02:10;100580.84;;;8.54;56.35
59272;BME280;45043;51.068;7.026;2023-05-14T03:05:11;100579.63;;;8.57;56.70
59272;BME280;45043;51.068;7.026;2023-05-14T03:08:11;100579.63;;;8.57;57.12
59272;BME280;45043;51.068;7.026;2023-05-14T03:11:12;100576.63;;;8.60;57.20
59272;BME280;45043;51.068;7.026;2023-05-14T03:14:12;100579.38;;;8.67;57.24
59272;BME280;45043;51.068;7.026;2023-05-14T03:17:13;100573.91;;;8.68;57.39
59272;BME280;45043;51.068;7.026;2023-05-14T03:20:13;100580.09;;;8.75;57.38
59272;BME280;45043;51.068;7.026;2023-05-14T03:23:14;100583.41;;;8.77;57.18
59272;BME280;45043;51.068;7.026;2023-05-14T03:26:14;100577.09;;;8.78;56.99
59272;BME280;45043;51.068;7.026;2023-05-14T03:29:15;100574.44;;;8.78;56.66
59272;BME280;45043;51.068;7.026;2023-05-14T03:32:17;100584.44;;;8.76;56.34
59272;BME280;45043;51.068;7.026;2023-05-14T03:35:17;100585.03;;;8.78;56.20
59272;BME280;45043;51.068;7.026;2023-05-14T03:38:18;100587.59;;;8.72;55.70
59272;BME280;45043;51.068;7.026;2023-05-14T03:41:20;100578.00;;;8.56;55.88
59272;BME280;45043;51.068;7.026;2023-05-14T03:44:22;100576.56;;;8.53;56.17
59272;BME280;45043;51.068;7.026;2023-05-14T03:47:22;100567.75;;;8.53;56.11
59272;BME280;45043;51.068;7.026;2023-05-14T03:50:23;100569.44;;;8.54;55.70
59272;BME280;45043;51.068;7.026;2023-05-14T03:53:24;100569.22;;;8.55;55.97
59272;BME280;45043;51.068;7.026;2023-05-14T03:56:25;100577.72;;;8.51;56.00
59272;BME280;45043;51.068;7.026;2023-05-14T03:59:26;100571.78;;;8.49;56.26
59272;BME280;45043;51.068;7.026;2023-05-14T04:02:27;100574.78;;;8.46;56.38
59272;BME280;45043;51.068;7.026;2023-05-14T04:05:29;100564.63;;;8.35;56.65
59272;BME280;45043;51.068;7.026;2023-05-14T04:08:29;100575.50;;;8.40;56.88
59272;BME280;45043;51.068;7.026;2023-05-14T04:11:30;100569.78;;;8.51;56.61
59272;BME280;45043;51.068;7.026;2023-05-14T04:14:30;100574.72;;;8.54;56.59
59272;BME280;45043;51.068;7.026;2023-05-14T04:17:31;100571.06;;;8.55;56.18
59272;BME280;45043;51.068;7.026;2023-05-14T04:20:31;100573.06;;;8.53;56.44
59272;BME280;45043;51.068;7.026;2023-05-14T04:23:32;100576.63;;;8.60;56.40
59272;BME280;45043;51.068;7.026;2023-05-14T04:26:32;100570.97;;;8.63;55.93
59272;BME280;45043;51.068;7.026;2023-05-14T04:29:33;100570.81;;;8.65;56.30
59272;BME280;45043;51.068;7.026;2023-05-14T04:32:33;100573.16;;;8.74;55.86
59272;BME280;45043;51.068;7.026;2023-05-14T04:35:33;100577.47;;;8.75;55.52
59272;BME280;45043;51.068;7.026;2023-05-14T04:38:34;100574.09;;;8.82;55.96
59272;BME280;45043;51.068;7.026;2023-05-14T04:41:34;100572.34;;;8.89;55.76
59272;BME280;45043;51.068;7.026;2023-05-14T04:44:35;100576.75;;;8.96;55.51
59272;BME280;45043;51.068;7.026;2023-05-14T04:47:37;100573.81;;;9.06;55.72
59272;BME280;45043;51.068;7.026;2023-05-14T04:50:37;100571.25;;;9.13;55.00
59272;BME280;45043;51.068;7.026;2023-05-14T04:53:38;100575.66;;;9.20;55.04
59272;BME280;45043;51.068;7.026;2023-05-14T04:56:38;100566.94;;;9.26;54.76
59272;BME280;45043;51.068;7.026;2023-05-14T04:59:38;100560.06;;;9.32;54.91
59272;BME280;45043;51.068;7.026;2023-05-14T05:02:39;100569.09;;;9.38;54.51
59272;BME280;45043;51.068;7.026;2023-05-14T05:05:39;100565.47;;;9.39;54.46
59272;BME280;45043;51.068;7.026;2023-05-14T05:08:39;100563.69;;;9.46;54.23
59272;BME280;45043;51.068;7.026;2023-05-14T05:11:40;100564.00;;;9.51;53.97
59272;BME280;45043;51.068;7.026;2023-05-14T05:14:41;100566.53;;;9.59;54.28
59272;BME280;45043;51.068;7.026;2023-05-14T05:17:41;100567.53;;;9.58;54.29
59272;BME280;45043;51.068;7.026;2023-05-14T05:20:42;100565.13;;;9.63;53.89
59272;BME280;45043;51.068;7.026;2023-05-14T05:23:42;100574.22;;;9.75;54.50
59272;BME280;45043;51.068;7.026;2023-05-14T05:26:42;100562.50;;;9.85;54.23
59272;BME280;45043;51.068;7.026;2023-05-14T05:29:43;100560.66;;;10.07;54.30
59272;BME280;45043;51.068;7.026;2023-05-14T05:32:44;100566.78;;;10.29;54.06
59272;BME280;45043;51.068;7.026;2023-05-14T05:35:44;100567.19;;;10.60;54.01
59272;BME280;45043;51.068;7.026;2023-05-14T05:38:45;100567.81;;;10.90;54.59
59272;BME280;45043;51.068;7.026;2023-05-14T05:41:46;100567.97;;;11.17;54.42
59272;BME280;45043;51.068;7.026;2023-05-14T05:44:47;100579.69;;;11.36;53.49
59272;BME280;45043;51.068;7.026;2023-05-14T05:47:47;100578.22;;;11.27;53.67
59272;BME280;45043;51.068;7.026;2023-05-14T05:50:48;100572.69;;;11.21;54.35
59272;BME280;45043;51.068;7.026;2023-05-14T05:53:49;100574.94;;;11.25;54.28
59272;BME280;45043;51.068;7.026;2023-05-14T05:56:50;100584.78;;;11.24;54.24
59272;BME280;45043;51.068;7.026;2023-05-14T05:59:51;100583.53;;;11.27;54.30
59272;BME280;45043;51.068;7.026;2023-05-14T06:02:51;100579.06;;;11.34;54.30
59272;BME280;45043;51.068;7.026;2023-05-14T06:05:51;100581.97;;;11.39;54.02
59272;BME280;45043;51.068;7.026;2023-05-14T06:08:52;100587.91;;;11.41;53.52
59272;BME280;45043;51.068;7.026;2023-05-14T06:11:53;100579.84;;;11.28;53.70
59272;BME280;45043;51.068;7.026;2023-05-14T06:14:54;100588.69;;;11.35;53.62
59272;BME280;45043;51.068;7.026;2023-05-14T06:17:54;100590.56;;;11.41;53.58
59272;BME280;45043;51.068;7.026;2023-05-14T06:20:55;100591.78;;;11.45;53.90
59272;BME280;45043;51.068;7.026;2023-05-14T06:23:56;100578.94;;;11.55;53.57
59272;BME280;45043;51.068;7.026;2023-05-14T06:26:56;100582.47;;;11.69;53.44
59272;BME280;45043;51.068;7.026;2023-05-14T06:29:57;100575.97;;;11.85;52.92
59272;BME280;45043;51.068;7.026;2023-05-14T06:32:57;100579.25;;;11.93;52.77
59272;BME280;45043;51.068;7.026;2023-05-14T06:35:59;100579.69;;;12.04;52.35
59272;BME280;45043;51.068;7.026;2023-05-14T06:39:00;100590.34;;;12.10;52.18
59272;BME280;45043;51.068;7.026;2023-05-14T06:42:00;100592.00;;;12.25;52.04
59272;BME280;45043;51.068;7.026;2023-05-14T06:45:04;100596.47;;;12.31;52.08
59272;BME280;45043;51.068;7.026;2023-05-14T06:48:05;100581.94;;;12.27;52.49
59272;BME280;45043;51.068;7.026;2023-05-14T06:51:06;100582.97;;;12.26;52.17
59272;BME280;45043;51.068;7.026;2023-05-14T06:54:06;100576.41;;;12.35;52.38
59272;BME280;45043;51.068;7.026;2023-05-14T06:57:06;100579.06;;;12.48;52.12
59272;BME280;45043;51.068;7.026;2023-05-14T07:00:07;100582.94;;;12.65;51.95
59272;BME280;45043;51.068;7.026;2023-05-14T07:03:08;100581.31;;;12.78;51.49
59272;BME280;45043;51.068;7.026;2023-05-14T07:06:08;100583.75;;;12.86;51.58
59272;BME280;45043;51.068;7.026;2023-05-14T07:09:08;100584.13;;;12.96;51.21
59272;BME280;45043;51.068;7.026;2023-05-14T07:12:09;100575.91;;;13.04;50.83
59272;BME280;45043;51.068;7.026;2023-05-14T07:15:10;100583.47;;;13.14;50.42
59272;BME280;45043;51.068;7.026;2023-05-14T07:18:11;100585.25;;;13.27;50.16
59272;BME280;45043;51.068;7.026;2023-05-14T07:21:11;100576.59;;;13.38;49.78
59272;BME280;45043;51.068;7.026;2023-05-14T07:24:12;100576.69;;;13.56;49.39
59272;BME280;45043;51.068;7.026;2023-05-14T07:27:12;100575.22;;;13.67;48.92
59272;BME280;45043;51.068;7.026;2023-05-14T07:30:13;100573.97;;;13.70;48.70
59272;BME280;45043;51.068;7.026;2023-05-14T07:33:13;100563.72;;;13.73;48.31
59272;BME280;45043;51.068;7.026;2023-05-14T07:36:14;100565.31;;;13.81;48.42
59272;BME280;45043;51.068;7.026;2023-05-14T07:39:14;100559.94;;;13.88;48.17
59272;BME280;45043;51.068;7.026;2023-05-14T07:42:15;100561.72;;;13.94;47.55
59272;BME280;45043;51.068;7.026;2023-05-14T07:45:16;100562.09;;;13.97;47.81
59272;BME280;45043;51.068;7.026;2023-05-14T07:48:16;100548.31;;;14.00;47.49
59272;BME280;45043;51.068;7.026;2023-05-14T07:51:17;100555.28;;;14.01;46.96
59272;BME280;45043;51.068;7.026;2023-05-14T07:54:19;100545.38;;;14.08;46.73
59272;BME280;45043;51.068;7.026;2023-05-14T07:57:19;100555.72;;;14.23;46.72
59272;BME280;45043;51.068;7.026;2023-05-14T08:00:21;100553.00;;;14.30;46.57
59272;BME280;45043;51.068;7.026;2023-05-14T08:03:21;100558.44;;;14.42;46.14
59272;BME280;45043;51.068;7.026;2023-05-14T08:06:23;100566.84;;;14.45;45.77
59272;BME280;45043;51.068;7.026;2023-05-14T08:09:26;100559.88;;;14.44;45.30
59272;BME280;45043;51.068;7.026;2023-05-14T08:12:27;100560.97;;;14.37;45.06
59272;BME280;45043;51.068;7.026;2023-05-14T08:15:29;100563.69;;;14.30;45.44
59272;BME280;45043;51.068;7.026;2023-05-14T08:18:29;100559.59;;;14.27;45.45
59272;BME280;45043;51.068;7.026;2023-05-14T08:21:29;100566.13;;;14.31;45.16
59272;BME280;45043;51.068;7.026;2023-05-14T08:24:30;100566.38;;;14.30;44.90
59272;BME280;45043;51.068;7.026;2023-05-14T08:27:31;100573.72;;;14.34;44.64
59272;BME280;45043;51.068;7.026;2023-05-14T08:30:31;100560.16;;;14.36;45.02
59272;BME280;45043;51.068;7.026;2023-05-14T08:33:32;100564.06;;;14.33;45.60
59272;BME280;45043;51.068;7.026;2023-05-14T08:36:32;100559.97;;;14.31;44.98
59272;BME280;45043;51.068;7.026;2023-05-14T08:39:33;100557.19;;;14.44;45.23
59272;BME280;45043;51.068;7.026;2023-05-14T08:42:33;100549.75;;;14.46;45.34
59272;BME280;45043;51.068;7.026;2023-05-14T08:45:36;100554.66;;;14.49;45.22
59272;BME280;45043;51.068;7.026;2023-05-14T08:48:39;100548.06;;;14.52;45.32
59272;BME280;45043;51.068;7.026;2023-05-14T08:51:43;100544.91;;;14.62;45.16
59272;BME280;45043;51.068;7.026;2023-05-14T08:54:45;100535.44;;;14.66;44.91
59272;BME280;45043;51.068;7.026;2023-05-14T08:57:47;100535.06;;;14.62;44.90
59272;BME280;45043;51.068;7.026;2023-05-14T09:00:48;100542.41;;;14.67;45.13
59272;BME280;45043;51.068;7.026;2023-05-14T09:03:49;100542.41;;;14.67;44.67
59272;BME280;45043;51.068;7.026;2023-05-14T09:06:51;100539.22;;;14.76;44.58
59272;BME280;45043;51.068;7.026;2023-05-14T09:09:55;100531.28;;;14.88;44.12
59272;BME280;45043;51.068;7.026;2023-05-14T09:12:55;100523.13;;;14.95;43.77
59272;BME280;45043;51.068;7.026;2023-05-14T09:15:56;100531.41;;;14.93;43.87
59272;BME280;45043;51.068;7.026;2023-05-14T09:18:57;100532.38;;;14.80;43.83
59272;BME280;45043;51.068;7.026;2023-05-14T09:21:57;100536.19;;;14.73;44.29
59272;BME280;45043;51.068;7.026;2023-05-14T09:25:08;100531.03;;;14.71;44.00
59272;BME280;45043;51.068;7.026;2023-05-14T09:28:11;100525.53;;;14.66;44.17
59272;BME280;45043;51.068;7.026;2023-05-14T09:31:11;100524.63;;;14.72;44.11
59272;BME280;45043;51.068;7.026;2023-05-14T09:34:22;100516.25;;;14.69;43.67
59272;BME280;45043;51.068;7.026;2023-05-14T09:37:23;100516.47;;;14.67;43.53
59272;BME280;45043;51.068;7.026;2023-05-14T09:40:25;100507.34;;;14.75;44.20
59272;BME280;45043;51.068;7.026;2023-05-14T09:43:25;100511.06;;;14.74;44.37
59272;BME280;45043;51.068;7.026;2023-05-14T09:46:26;100507.41;;;14.87;44.40
59272;BME280;45043;51.068;7.026;2023-05-14T09:49:29;100500.16;;;15.05;44.37
59272;BME280;45043;51.068;7.026;2023-05-14T09:52:30;100503.41;;;15.26;44.18
59272;BME280;45043;51.068;7.026;2023-05-14T09:55:30;100496.69;;;15.35;43.54
59272;BME280;45043;51.068;7.026;2023-05-14T09:58:31;100494.72;;;15.42;43.39
59272;BME280;45043;51.068;7.026;2023-05-14T10:01:32;100480.91;;;15.45;42.63
59272;BME280;45043;51.068;7.026;2023-05-14T10:04:32;100491.16;;;15.48;42.21
59272;BME280;45043;51.068;7.026;2023-05-14T10:07:41;100488.91;;;15.64;42.33
59272;BME280;45043;51.068;7.026;2023-05-14T10:10:42;100481.47;;;15.66;41.92
59272;BME280;45043;51.068;7.026;2023-05-14T10:13:48;100472.75;;;15.82;41.52
59272;BME280;45043;51.068;7.026;2023-05-14T10:16:52;100473.69;;;15.99;41.63
59272;BME280;45043;51.068;7.026;2023-05-14T10:19:55;100469.13;;;16.12;41.71
59272;BME280;45043;51.068;7.026;2023-05-14T10:22:57;100466.00;;;16.15;41.71
59272;BME280;45043;51.068;7.026;2023-05-14T10:25:58;100470.41;;;16.21;41.44
59272;BME280;45043;51.068;7.026;2023-05-14T10:28:59;100468.78;;;16.32;41.22
59272;BME280;45043;51.068;7.026;2023-05-14T10:32:04;100455.19;;;16.33;41.90
59272;BME280;45043;51.068;7.026;2023-05-14T10:35:18;100468.06;;;16.24;40.85
59272;BME280;45043;51.068;7.026;2023-05-14T10:38:26;100462.63;;;16.19;41.70
59272;BME280;45043;51.068;7.026;2023-05-14T10:41:27;100451.31;;;16.06;41.17
59272;BME280;45043;51.068;7.026;2023-05-14T10:44:27;100454.69;;;15.89;41.58
59272;BME280;45043;51.068;7.026;2023-05-14T10:47:28;100447.72;;;15.88;41.80
59272;BME280;45043;51.068;7.026;2023-05-14T10:50:29;100452.13;;;15.94;41.79
59272;BME280;45043;51.068;7.026;2023-05-14T10:53:37;100446.44;;;16.02;40.93
59272;BME280;45043;51.068;7.026;2023-05-14T10:56:38;100445.59;;;16.02;40.98
59272;BME280;45043;51.068;7.026;2023-05-14T10:59:42;100431.16;;;16.03;41.17
59272;BME280;45043;51.068;7.026;2023-05-14T11:02:43;100438.03;;;16.11;40.71
59272;BME280;45043;51.068;7.026;2023-05-14T11:05:45;100433.25;;;16.13;40.81
59272;BME280;45043;51.068;7.026;2023-05-14T11:08:45;100425.00;;;16.14;40.11
59272;BME280;45043;51.068;7.026;2023-05-14T11:11:46;100425.81;;;16.15;39.40
59272;BME280;45043;51.068;7.026;2023-05-14T11:14:47;100429.63;;;16.31;39.74
59272;BME280;45043;51.068;7.026;2023-05-14T11:17:49;100421.34;;;16.44;39.75
59272;BME280;45043;51.068;7.026;2023-05-14T11:20:50;100422.72;;;16.46;39.54
59272;BME280;45043;51.068;7.026;2023-05-14T11:23:53;100416.97;;;16.66;38.81
59272;BME280;45043;51.068;7.026;2023-05-14T11:26:55;100420.19;;;16.80;38.82
59272;BME280;45043;51.068;7.026;2023-05-14T11:29:55;100409.44;;;16.92;38.59
59272;BME280;45043;51.068;7.026;2023-05-14T11:32:57;100410.47;;;16.91;38.63
59272;BME280;45043;51.068;7.026;2023-05-14T11:35:57;100407.63;;;16.97;38.71
59272;BME280;45043;51.068;7.026;2023-05-14T11:38:58;100399.53;;;17.09;38.88
59272;BME280;45043;51.068;7.026;2023-05-14T11:42:01;100398.13;;;17.18;37.56
59272;BME280;45043;51.068;7.026;2023-05-14T11:45:02;100391.28;;;17.28;37.10
59272;BME280;45043;51.068;7.026;2023-05-14T11:48:11;100389.09;;;17.41;37.34
59272;BME280;45043;51.068;7.026;2023-05-14T11:51:14;100376.00;;;17.45;37.12
59272;BME280;45043;51.068;7.026;2023-05-14T11:54:14;100375.91;;;17.57;35.68
59272;BME280;45043;51.068;7.026;2023-05-14T11:57:17;100364.91;;;17.75;35.27
59272;BME280;45043;51.068;7.026;2023-05-14T12:00:18;100362.28;;;17.97;34.93
59272;BME280;45043;51.068;7.026;2023-05-14T12:03:21;100363.22;;;18.08;33.42
59272;BME280;45043;51.068;7.026;2023-05-14T12:06:32;100348.16;;;17.90;30.92
59272;BME280;45043;51.068;7.026;2023-05-14T12:09:35;100343.88;;;17.72;30.01
59272;BME280;45043;51.068;7.026;2023-05-14T12:12:37;100343.13;;;17.77;29.94
59272;BME280;45043;51.068;7.026;2023-05-14T12:15:37;100356.84;;;17.75;28.81
59272;BME280;45043;51.068;7.026;2023-05-14T12:18:37;100349.78;;;17.91;28.82
59272;BME280;45043;51.068;7.026;2023-05-14T12:21:38;100349.97;;;18.23;28.95
59272;BME280;45043;51.068;7.026;2023-05-14T12:24:40;100334.69;;;18.51;27.91
59272;BME280;45043;51.068;7.026;2023-05-14T12:27:43;100324.03;;;18.61;27.72
59272;BME280;45043;51.068;7.026;2023-05-14T12:30:45;100329.75;;;18.42;26.60
59272;BME280;45043;51.068;7.026;2023-05-14T12:33:48;100331.19;;;18.28;27.33
59272;BME280;45043;51.068;7.026;2023-05-14T12:36:48;100324.13;;;18.44;26.92
59272;BME280;45043;51.068;7.026;2023-05-14T12:39:49;100320.78;;;18.81;27.32
59272;BME280;45043;51.068;7.026;2023-05-14T12:42:49;100322.63;;;19.07;27.47
59272;BME280;45043;51.068;7.026;2023-05-14T12:45:50;100315.06;;;19.09;26.99
59272;BME280;45043;51.068;7.026;2023-05-14T12:48:50;100316.63;;;19.00;27.10
59272;BME280;45043;51.068;7.026;2023-05-14T12:51:50;100314.41;;;18.92;27.34
59272;BME280;45043;51.068;7.026;2023-05-14T12:54:51;100310.47;;;19.05;26.91
59272;BME280;45043;51.068;7.026;2023-05-14T12:57:51;100307.34;;;19.18;26.75
59272;BME280;45043;51.068;7.026;2023-05-14T13:00:52;100298.56;;;19.33;26.84
59272;BME280;45043;51.068;7.026;2023-05-14T13:03:52;100293.59;;;19.14;26.01
59272;BME280;45043;51.068;7.026;2023-05-14T13:06:53;100310.88;;;19.24;26.37
59272;BME280;45043;51.068;7.026;2023-05-14T13:09:53;100307.06;;;19.14;25.83
59272;BME280;45043;51.068;7.026;2023-05-14T13:12:54;100282.03;;;19.19;25.91
59272;BME280;45043;51.068;7.026;2023-05-14T13:15:55;100294.44;;;19.20;25.24
59272;BME280;45043;51.068;7.026;2023-05-14T13:18:56;100293.09;;;19.23;25.10
59272;BME280;45043;51.068;7.026;2023-05-14T13:21:56;100290.84;;;19.42;24.89
59272;BME280;45043;51.068;7.026;2023-05-14T13:24:56;100271.78;;;19.53;25.06
59272;BME280;45043;51.068;7.026;2023-05-14T13:27:57;100279.75;;;19.85;25.68
59272;BME280;45043;51.068;7.026;2023-05-14T13:31:04;100281.53;;;20.27;25.17
59272;BME280;45043;51.068;7.026;2023-05-14T13:34:06;100288.59;;;20.39;24.41
59272;BME280;45043;51.068;7.026;2023-05-14T13:37:07;100275.66;;;20.46;25.15
59272;BME280;45043;51.068;7.026;2023-05-14T13:40:08;100277.81;;;20.49;25.12
59272;BME280;45043;51.068;7.026;2023-05-14T13:43:09;100270.28;;;20.56;24.57
59272;BME280;45043;51.068;7.026;2023-05-14T13:46:10;100271.09;;;20.51;24.71
59272;BME280;45043;51.068;7.026;2023-05-14T13:49:10;100273.44;;;20.32;25.25
59272;BME280;45043;51.068;7.026;2023-05-14T13:52:11;100257.72;;;20.04;25.22
59272;BME280;45043;51.068;7.026;2023-05-14T13:55:11;100268.97;;;19.85;25.64
59272;BME280;45043;51.068;7.026;2023-05-14T13:58:12;100263.75;;;19.69;25.84
59272;BME280;45043;51.068;7.026;2023-05-14T14:01:12;100257.00;;;19.61;25.48
59272;BME280;45043;51.068;7.026;2023-05-14T14:04:13;100254.50;;;19.49;25.54
59272;BME280;45043;51.068;7.026;2023-05-14T14:07:15;100255.31;;;19.50;25.62
59272;BME280;45043;51.068;7.026;2023-05-14T14:10:16;100248.44;;;19.74;25.93
59272;BME280;45043;51.068;7.026;2023-05-14T14:13:16;100243.16;;;20.00;25.91
59272;BME280;45043;51.068;7.026;2023-05-14T14:16:17;100242.69;;;20.18;25.80
59272;BME280;45043;51.068;7.026;2023-05-14T14:19:17;100238.94;;;20.29;25.84
59272;BME280;45043;51.068;7.026;2023-05-14T14:22:18;100242.75;;;20.49;25.46
59272;BME280;45043;51.068;7.026;2023-05-14T14:25:18;100237.34;;;20.59;25.75
59272;BME280;45043;51.068;7.026;2023-05-14T14:28:19;100236.78;;;20.62;25.11
59272;BME280;45043;51.068;7.026;2023-05-14T14:31:20;100237.88;;;20.76;24.39
59272;BME280;45043;51.068;7.026;2023-05-14T14:34:20;100232.50;;;21.12;24.40
59272;BME280;45043;51.068;7.026;2023-05-14T14:37:20;100229.25;;;21.10;24.11
59272;BME280;45043;51.068;7.026;2023-05-14T14:40:21;100226.03;;;20.88;24.34
59272;BME280;45043;51.068;7.026;2023-05-14T14:43:23;100221.69;;;20.92;25.04
59272;BME280;45043;51.068;7.026;2023-05-14T14:46:23;100218.16;;;21.17;25.00
59272;BME280;45043;51.068;7.026;2023-05-14T14:49:24;100217.31;;;21.31;25.38
59272;BME280;45043;51.068;7.026;2023-05-14T14:52:25;100220.00;;;21.42;25.33
59272;BME280;45043;51.068;7.026;2023-05-14T14:55:26;100208.91;;;22.03;25.09
59272;BME280;45043;51.068;7.026;2023-05-14T14:58:27;100201.75;;;22.62;23.65
59272;BME280;45043;51.068;7.026;2023-05-14T15:01:27;100214.97;;;22.68;22.68
59272;BME280;45043;51.068;7.026;2023-05-14T15:04:28;100204.50;;;22.96;22.62
59272;BME280;45043;51.068;7.026;2023-05-14T15:07:31;100205.44;;;23.58;22.10
59272;BME280;45043;51.068;7.026;2023-05-14T15:10:32;100206.47;;;24.05;21.52
59272;BME280;45043;51.068;7.026;2023-05-14T15:13:37;100207.06;;;24.73;21.29
59272;BME280;45043;51.068;7.026;2023-05-14T15:16:39;100205.56;;;25.27;20.78
59272;BME280;45043;51.068;7.026;2023-05-14T15:19:41;100188.41;;;25.40;20.23
59272;BME280;45043;51.068;7.026;2023-05-14T15:22:41;100204.97;;;25.30;19.84
59272;BME280;45043;51.068;7.026;2023-05-14T15:25:42;100212.75;;;24.90;21.08
59272;BME280;45043;51.068;7.026;2023-05-14T15:28:42;100208.78;;;24.50;21.96
59272;BME280;45043;51.068;7.026;2023-05-14T15:31:43;100203.75;;;24.05;23.01
59272;BME280;45043;51.068;7.026;2023-05-14T15:34:44;100204.97;;;23.75;23.01
59272;BME280;45043;51.068;7.026;2023-05-14T15:37:45;100196.38;;;23.68;23.22
59272;BME280;45043;51.068;7.026;2023-05-14T15:40:45;100194.72;;;24.10;23.33
59272;BME280;45043;51.068;7.026;2023-05-14T15:43:46;100187.41;;;24.43;23.51
59272;BME280;45043;51.068;7.026;2023-05-14T15:46:46;100182.72;;;24.68;23.72
59272;BME280;45043;51.068;7.026;2023-05-14T15:49:46;100184.44;;;24.91;23.54
59272;BME280;45043;51.068;7.026;2023-05-14T15:52:47;100178.91;;;24.96;22.60
59272;BME280;45043;51.068;7.026;2023-05-14T15:55:48;100175.47;;;24.77;22.74
59272;BME280;45043;51.068;7.026;2023-05-14T15:58:48;100182.91;;;24.85;22.59
59272;BME280;45043;51.068;7.026;2023-05-14T16:01:49;100179.63;;;24.88;22.79
59272;BME280;45043;51.068;7.026;2023-05-14T16:04:50;100175.28;;;24.87;21.93
59272;BME280;45043;51.068;7.026;2023-05-14T16:07:50;100183.63;;;24.63;21.74